sensor_id;sensor_type;location;lat;lon;timestamp;temperature;humidity
35690;DHT22;26977;44.830;-0.674;2022-12-07T00:01:14;4.60;99.90
35690;DHT22;26977;44.830;-0.674;2022-12-07T00:03:42;4.60;99.90
35690;DHT22;26977;44.830;-0.674;2022-12-07T00:06:10;4.60;99.90
35690;DHT22;26977;44.830;-0.674;2022-12-07T00:08:37;4.60;99.90
35690;DHT22;26977;44.830;-0.674;2022-12-07T00:11:12;4.60;99.90
35690;DHT22;26977;44.830;-0.674;2022-12-07T00:13:39;4.60;99.90
35690;DHT22;26977;44.830;-0.674;2022-12-07T00:16:07;4.60;99.90
35690;DHT22;26977;44.830;-0.674;2022-12-07T00:18:34;4.60;99.90
35690;DHT22;26977;44.830;-0.674;2022-12-07T00:21:06;4.60;99.90
35690;DHT22;26977;44.830;-0.674;2022-12-07T00:23:32;4.50;99.90
35690;DHT22;26977;44.830;-0.674;2022-12-07T00:26:10;4.50;99.90
35690;DHT22;26977;44.830;-0.674;2022-12-07T00:28:36;4.50;99.90
35690;DHT22;26977;44.830;-0.674;2022-12-07T00:31:04;4.50;99.90
35690;DHT22;26977;44.830;-0.674;2022-12-07T00:33:32;4.50;99.90
35690;DHT22;26977;44.830;-0.674;2022-12-07T00:35:59;4.50;99.90
35690;DHT22;26977;44.830;-0.674;2022-12-07T00:38:31;4.50;99.90
35690;DHT22;26977;44.830;-0.674;2022-12-07T00:41:03;4.40;99.90
35690;DHT22;26977;44.830;-0.674;2022-12-07T00:43:29;4.30;99.90
35690;DHT22;26977;44.830;-0.674;2022-12-07T00:45:56;4.30;99.90
35690;DHT22;26977;44.830;-0.674;2022-12-07T00:48:22;4.30;99.90
35690;DHT22;26977;44.830;-0.674;2022-12-07T00:50:48;4.30;99.90
35690;DHT22;26977;44.830;-0.674;2022-12-07T00:53:14;4.30;99.90
35690;DHT22;26977;44.830;-0.674;2022-12-07T00:55:40;4.20;99.90
35690;DHT22;26977;44.830;-0.674;2022-12-07T00:58:06;4.20;99.90
35690;DHT22;26977;44.830;-0.674;2022-12-07T01:00:32;4.10;99.90
35690;DHT22;26977;44.830;-0.674;2022-12-07T01:02:59;4.00;99.90
35690;DHT22;26977;44.830;-0.674;2022-12-07T01:05:24;3.90;99.90
35690;DHT22;26977;44.830;-0.674;2022-12-07T01:07:50;3.90;99.90
35690;DHT22;26977;44.830;-0.674;2022-12-07T01:10:16;3.80;99.90
35690;DHT22;26977;44.830;-0.674;2022-12-07T01:12:41;3.70;99.90
35690;DHT22;26977;44.830;-0.674;2022-12-07T01:15:07;3.60;99.90
35690;DHT22;26977;44.830;-0.674;2022-12-07T01:17:34;3.50;99.90
35690;DHT22;26977;44.830;-0.674;2022-12-07T01:20:00;3.50;99.90
35690;DHT22;26977;44.830;-0.674;2022-12-07T01:22:26;3.40;99.90
35690;DHT22;26977;44.830;-0.674;2022-12-07T01:24:52;3.30;99.90
35690;DHT22;26977;44.830;-0.674;2022-12-07T01:27:17;3.20;99.90
35690;DHT22;26977;44.830;-0.674;2022-12-07T01:29:43;3.10;99.90
35690;DHT22;26977;44.830;-0.674;2022-12-07T01:32:09;3.10;99.90
35690;DHT22;26977;44.830;-0.674;2022-12-07T01:34:35;3.00;99.90
35690;DHT22;26977;44.830;-0.674;2022-12-07T01:37:00;3.00;99.90
35690;DHT22;26977;44.830;-0.674;2022-12-07T01:39:26;2.90;99.90
35690;DHT22;26977;44.830;-0.674;2022-12-07T01:41:52;3.00;99.90
35690;DHT22;26977;44.830;-0.674;2022-12-07T01:44:23;3.00;99.90
35690;DHT22;26977;44.830;-0.674;2022-12-07T01:46:55;2.90;99.90
35690;DHT22;26977;44.830;-0.674;2022-12-07T01:49:45;2.90;99.90
35690;DHT22;26977;44.830;-0.674;2022-12-07T01:52:25;2.80;99.90
35690;DHT22;26977;44.830;-0.674;2022-12-07T01:54:56;2.80;99.90
35690;DHT22;26977;44.830;-0.674;2022-12-07T01:57:23;2.80;99.90
35690;DHT22;26977;44.830;-0.674;2022-12-07T01:59:50;2.80;99.90
35690;DHT22;26977;44.830;-0.674;2022-12-07T02:02:23;2.80;99.90
35690;DHT22;26977;44.830;-0.674;2022-12-07T02:04:52;2.80;99.90
35690;DHT22;26977;44.830;-0.674;2022-12-07T02:07:19;2.70;99.90
35690;DHT22;26977;44.830;-0.674;2022-12-07T02:09:45;2.70;99.90
35690;DHT22;26977;44.830;-0.674;2022-12-07T02:12:11;2.80;99.90
35690;DHT22;26977;44.830;-0.674;2022-12-07T02:14:37;2.70;99.90
35690;DHT22;26977;44.830;-0.674;2022-12-07T02:17:20;2.70;99.90
35690;DHT22;26977;44.830;-0.674;2022-12-07T02:20:19;2.70;99.90
35690;DHT22;26977;44.830;-0.674;2022-12-07T02:25:58;2.50;99.90
35690;DHT22;26977;44.830;-0.674;2022-12-07T02:28:37;2.50;99.90
35690;DHT22;26977;44.830;-0.674;2022-12-07T02:31:12;2.50;99.90
35690;DHT22;26977;44.830;-0.674;2022-12-07T02:33:50;2.40;99.90
35690;DHT22;26977;44.830;-0.674;2022-12-07T02:36:27;2.40;99.90
35690;DHT22;26977;44.830;-0.674;2022-12-07T02:39:05;2.40;99.90
35690;DHT22;26977;44.830;-0.674;2022-12-07T02:42:01;2.50;99.90
35690;DHT22;26977;44.830;-0.674;2022-12-07T02:44:28;2.40;99.90
35690;DHT22;26977;44.830;-0.674;2022-12-07T02:47:08;2.40;99.90
35690;DHT22;26977;44.830;-0.674;2022-12-07T02:49:36;2.30;99.90
35690;DHT22;26977;44.830;-0.674;2022-12-07T02:52:03;2.20;99.90
35690;DHT22;26977;44.830;-0.674;2022-12-07T02:54:29;2.20;99.90
35690;DHT22;26977;44.830;-0.674;2022-12-07T02:57:07;2.20;99.90
35690;DHT22;26977;44.830;-0.674;2022-12-07T03:00:00;2.10;99.90
35690;DHT22;26977;44.830;-0.674;2022-12-07T03:05:40;2.10;99.90
35690;DHT22;26977;44.830;-0.674;2022-12-07T03:11:03;2.20;99.90
35690;DHT22;26977;44.830;-0.674;2022-12-07T03:16:28;2.20;99.90
35690;DHT22;26977;44.830;-0.674;2022-12-07T03:19:08;2.20;99.90
35690;DHT22;26977;44.830;-0.674;2022-12-07T03:21:40;2.10;99.90
35690;DHT22;26977;44.830;-0.674;2022-12-07T03:24:11;2.10;99.90
35690;DHT22;26977;44.830;-0.674;2022-12-07T03:26:42;2.10;99.90
35690;DHT22;26977;44.830;-0.674;2022-12-07T03:29:28;2.10;99.90
35690;DHT22;26977;44.830;-0.674;2022-12-07T03:32:01;2.10;99.90
35690;DHT22;26977;44.830;-0.674;2022-12-07T03:34:34;2.10;99.90
35690;DHT22;26977;44.830;-0.674;2022-12-07T03:37:05;2.10;99.90
35690;DHT22;26977;44.830;-0.674;2022-12-07T03:42:33;2.10;99.90
35690;DHT22;26977;44.830;-0.674;2022-12-07T03:45:01;2.00;99.90
35690;DHT22;26977;44.830;-0.674;2022-12-07T03:53:19;1.80;99.90
35690;DHT22;26977;44.830;-0.674;2022-12-07T03:55:47;1.80;99.90
35690;DHT22;26977;44.830;-0.674;2022-12-07T03:58:19;1.70;99.90
35690;DHT22;26977;44.830;-0.674;2022-12-07T04:00:46;1.70;99.90
35690;DHT22;26977;44.830;-0.674;2022-12-07T04:03:12;1.70;99.90
35690;DHT22;26977;44.830;-0.674;2022-12-07T04:05:39;1.80;99.90
35690;DHT22;26977;44.830;-0.674;2022-12-07T04:08:05;1.80;99.90
35690;DHT22;26977;44.830;-0.674;2022-12-07T04:10:30;1.80;99.90
35690;DHT22;26977;44.830;-0.674;2022-12-07T04:12:56;1.80;99.90
35690;DHT22;26977;44.830;-0.674;2022-12-07T04:15:22;1.80;99.90
35690;DHT22;26977;44.830;-0.674;2022-12-07T04:17:48;1.90;99.90
35690;DHT22;26977;44.830;-0.674;2022-12-07T04:20:13;1.80;99.90
35690;DHT22;26977;44.830;-0.674;2022-12-07T04:22:39;1.80;99.90
35690;DHT22;26977;44.830;-0.674;2022-12-07T04:25:05;1.80;99.90
35690;DHT22;26977;44.830;-0.674;2022-12-07T04:27:31;1.80;99.90
35690;DHT22;26977;44.830;-0.674;2022-12-07T04:29:56;1.80;99.90
35690;DHT22;26977;44.830;-0.674;2022-12-07T04:32:23;1.80;99.90
35690;DHT22;26977;44.830;-0.674;2022-12-07T04:34:49;1.80;99.90
35690;DHT22;26977;44.830;-0.674;2022-12-07T04:37:15;1.90;99.90
35690;DHT22;26977;44.830;-0.674;2022-12-07T04:39:41;1.80;99.90
35690;DHT22;26977;44.830;-0.674;2022-12-07T04:42:07;1.80;99.90
35690;DHT22;26977;44.830;-0.674;2022-12-07T04:44:32;1.70;99.90
35690;DHT22;26977;44.830;-0.674;2022-12-07T04:46:58;1.70;99.90
35690;DHT22;26977;44.830;-0.674;2022-12-07T04:49:25;1.70;99.90
35690;DHT22;26977;44.830;-0.674;2022-12-07T04:51:51;1.80;99.90
35690;DHT22;26977;44.830;-0.674;2022-12-07T04:54:17;1.80;99.90
35690;DHT22;26977;44.830;-0.674;2022-12-07T04:56:43;1.90;99.90
35690;DHT22;26977;44.830;-0.674;2022-12-07T04:59:13;1.80;99.90
35690;DHT22;26977;44.830;-0.674;2022-12-07T05:01:40;1.80;99.90
35690;DHT22;26977;44.830;-0.674;2022-12-07T05:04:06;1.80;99.90
35690;DHT22;26977;44.830;-0.674;2022-12-07T05:06:31;1.80;99.90
35690;DHT22;26977;44.830;-0.674;2022-12-07T05:08:57;1.80;99.90
35690;DHT22;26977;44.830;-0.674;2022-12-07T05:11:23;1.70;99.90
35690;DHT22;26977;44.830;-0.674;2022-12-07T05:14:22;1.70;99.90
35690;DHT22;26977;44.830;-0.674;2022-12-07T05:16:50;1.70;99.90
35690;DHT22;26977;44.830;-0.674;2022-12-07T05:19:16;1.80;99.90
35690;DHT22;26977;44.830;-0.674;2022-12-07T05:21:42;1.80;99.90
35690;DHT22;26977;44.830;-0.674;2022-12-07T05:24:10;1.80;99.90
35690;DHT22;26977;44.830;-0.674;2022-12-07T05:26:36;1.80;99.90
35690;DHT22;26977;44.830;-0.674;2022-12-07T05:29:03;1.90;99.90
35690;DHT22;26977;44.830;-0.674;2022-12-07T05:31:29;2.00;99.90
35690;DHT22;26977;44.830;-0.674;2022-12-07T05:33:55;2.10;99.90
35690;DHT22;26977;44.830;-0.674;2022-12-07T05:36:22;2.00;99.90
35690;DHT22;26977;44.830;-0.674;2022-12-07T05:38:47;2.00;99.90
35690;DHT22;26977;44.830;-0.674;2022-12-07T05:41:16;1.90;99.90
35690;DHT22;26977;44.830;-0.674;2022-12-07T05:44:00;2.00;99.90
35690;DHT22;26977;44.830;-0.674;2022-12-07T05:46:27;2.00;99.90
35690;DHT22;26977;44.830;-0.674;2022-12-07T05:48:52;2.00;99.90
35690;DHT22;26977;44.830;-0.674;2022-12-07T05:51:18;2.10;99.90
35690;DHT22;26977;44.830;-0.674;2022-12-07T05:53:44;2.10;99.90
35690;DHT22;26977;44.830;-0.674;2022-12-07T05:56:10;2.10;99.90
35690;DHT22;26977;44.830;-0.674;2022-12-07T05:58:36;2.10;99.90
35690;DHT22;26977;44.830;-0.674;2022-12-07T06:01:20;2.10;99.90
35690;DHT22;26977;44.830;-0.674;2022-12-07T06:03:45;2.20;99.90
35690;DHT22;26977;44.830;-0.674;2022-12-07T06:06:11;2.20;99.90
35690;DHT22;26977;44.830;-0.674;2022-12-07T06:08:37;2.20;99.90
35690;DHT22;26977;44.830;-0.674;2022-12-07T06:11:03;2.20;99.90
35690;DHT22;26977;44.830;-0.674;2022-12-07T06:13:47;2.20;99.90
35690;DHT22;26977;44.830;-0.674;2022-12-07T06:16:13;2.20;99.90
35690;DHT22;26977;44.830;-0.674;2022-12-07T06:18:38;2.30;99.90
35690;DHT22;26977;44.830;-0.674;2022-12-07T06:21:04;2.30;99.90
35690;DHT22;26977;44.830;-0.674;2022-12-07T06:23:30;2.20;99.90
35690;DHT22;26977;44.830;-0.674;2022-12-07T06:25:55;2.30;99.90
35690;DHT22;26977;44.830;-0.674;2022-12-07T06:28:21;2.30;99.90
35690;DHT22;26977;44.830;-0.674;2022-12-07T06:30:47;2.30;99.90
35690;DHT22;26977;44.830;-0.674;2022-12-07T06:33:12;2.20;99.90
35690;DHT22;26977;44.830;-0.674;2022-12-07T06:35:38;2.20;99.90
35690;DHT22;26977;44.830;-0.674;2022-12-07T06:38:03;2.30;99.90
35690;DHT22;26977;44.830;-0.674;2022-12-07T06:40:29;2.30;99.90
35690;DHT22;26977;44.830;-0.674;2022-12-07T06:42:55;2.30;99.90
35690;DHT22;26977;44.830;-0.674;2022-12-07T06:45:20;2.30;99.90
35690;DHT22;26977;44.830;-0.674;2022-12-07T06:47:46;2.30;99.90
35690;DHT22;26977;44.830;-0.674;2022-12-07T06:50:12;2.30;99.90
35690;DHT22;26977;44.830;-0.674;2022-12-07T06:52:37;2.30;99.90
35690;DHT22;26977;44.830;-0.674;2022-12-07T06:55:03;2.40;99.90
35690;DHT22;26977;44.830;-0.674;2022-12-07T06:57:29;2.40;99.90
35690;DHT22;26977;44.830;-0.674;2022-12-07T06:59:54;2.30;99.90
35690;DHT22;26977;44.830;-0.674;2022-12-07T07:02:20;2.40;99.90
35690;DHT22;26977;44.830;-0.674;2022-12-07T07:04:45;2.40;99.90
35690;DHT22;26977;44.830;-0.674;2022-12-07T07:07:11;2.30;99.90
35690;DHT22;26977;44.830;-0.674;2022-12-07T07:09:37;2.40;99.90
35690;DHT22;26977;44.830;-0.674;2022-12-07T07:12:02;2.40;99.90
35690;DHT22;26977;44.830;-0.674;2022-12-07T07:14:28;2.40;99.90
35690;DHT22;26977;44.830;-0.674;2022-12-07T07:16:54;2.50;99.90
35690;DHT22;26977;44.830;-0.674;2022-12-07T07:19:19;2.50;99.90
35690;DHT22;26977;44.830;-0.674;2022-12-07T07:21:45;2.50;99.90
35690;DHT22;26977;44.830;-0.674;2022-12-07T07:24:11;2.50;99.90
35690;DHT22;26977;44.830;-0.674;2022-12-07T07:26:36;2.40;99.90
35690;DHT22;26977;44.830;-0.674;2022-12-07T07:29:02;2.40;99.90
35690;DHT22;26977;44.830;-0.674;2022-12-07T07:31:28;2.40;99.90
35690;DHT22;26977;44.830;-0.674;2022-12-07T07:33:53;2.50;99.90
35690;DHT22;26977;44.830;-0.674;2022-12-07T07:36:19;2.50;99.90
35690;DHT22;26977;44.830;-0.674;2022-12-07T07:38:44;2.50;99.90
35690;DHT22;26977;44.830;-0.674;2022-12-07T07:41:10;2.50;99.90
35690;DHT22;26977;44.830;-0.674;2022-12-07T07:43:36;2.50;99.90
35690;DHT22;26977;44.830;-0.674;2022-12-07T07:46:01;2.50;99.90
35690;DHT22;26977;44.830;-0.674;2022-12-07T07:48:27;2.50;99.90
35690;DHT22;26977;44.830;-0.674;2022-12-07T07:50:53;2.50;99.90
35690;DHT22;26977;44.830;-0.674;2022-12-07T07:53:18;2.60;99.90
35690;DHT22;26977;44.830;-0.674;2022-12-07T07:55:54;2.60;99.90
35690;DHT22;26977;44.830;-0.674;2022-12-07T07:58:20;2.60;99.90
35690;DHT22;26977;44.830;-0.674;2022-12-07T08:00:46;2.60;99.90
35690;DHT22;26977;44.830;-0.674;2022-12-07T08:03:11;2.60;99.90
35690;DHT22;26977;44.830;-0.674;2022-12-07T08:05:37;2.50;99.90
35690;DHT22;26977;44.830;-0.674;2022-12-07T08:08:03;2.50;99.90
35690;DHT22;26977;44.830;-0.674;2022-12-07T08:10:29;2.50;99.90
35690;DHT22;26977;44.830;-0.674;2022-12-07T08:12:57;2.40;99.90
35690;DHT22;26977;44.830;-0.674;2022-12-07T08:15:46;2.40;99.90
35690;DHT22;26977;44.830;-0.674;2022-12-07T08:18:13;2.50;99.90
35690;DHT22;26977;44.830;-0.674;2022-12-07T08:20:39;2.60;99.90
35690;DHT22;26977;44.830;-0.674;2022-12-07T08:23:06;2.60;99.90
35690;DHT22;26977;44.830;-0.674;2022-12-07T08:25:32;2.70;99.90
35690;DHT22;26977;44.830;-0.674;2022-12-07T08:27:59;2.70;99.90
35690;DHT22;26977;44.830;-0.674;2022-12-07T08:30:26;2.70;99.90
35690;DHT22;26977;44.830;-0.674;2022-12-07T08:32:52;2.70;99.90
35690;DHT22;26977;44.830;-0.674;2022-12-07T08:35:18;2.70;99.90
35690;DHT22;26977;44.830;-0.674;2022-12-07T08:37:43;2.70;99.90
35690;DHT22;26977;44.830;-0.674;2022-12-07T08:40:11;2.70;99.90
35690;DHT22;26977;44.830;-0.674;2022-12-07T08:42:41;2.80;99.90
35690;DHT22;26977;44.830;-0.674;2022-12-07T08:45:09;2.70;99.90
35690;DHT22;26977;44.830;-0.674;2022-12-07T08:47:44;2.70;99.90
35690;DHT22;26977;44.830;-0.674;2022-12-07T08:50:12;2.60;99.90
35690;DHT22;26977;44.830;-0.674;2022-12-07T08:52:39;2.70;99.90
35690;DHT22;26977;44.830;-0.674;2022-12-07T08:55:06;2.80;99.90
35690;DHT22;26977;44.830;-0.674;2022-12-07T08:57:34;2.70;99.90
35690;DHT22;26977;44.830;-0.674;2022-12-07T09:00:01;2.70;99.90
35690;DHT22;26977;44.830;-0.674;2022-12-07T09:02:26;2.60;99.90
35690;DHT22;26977;44.830;-0.674;2022-12-07T09:04:52;2.50;99.90
35690;DHT22;26977;44.830;-0.674;2022-12-07T09:07:18;2.50;99.90
35690;DHT22;26977;44.830;-0.674;2022-12-07T09:09:43;2.40;99.90
35690;DHT22;26977;44.830;-0.674;2022-12-07T09:12:09;2.50;99.90
35690;DHT22;26977;44.830;-0.674;2022-12-07T09:14:35;2.50;99.90
35690;DHT22;26977;44.830;-0.674;2022-12-07T09:17:09;2.40;99.90
35690;DHT22;26977;44.830;-0.674;2022-12-07T09:19:35;2.40;99.90
35690;DHT22;26977;44.830;-0.674;2022-12-07T09:22:01;2.50;99.90
35690;DHT22;26977;44.830;-0.674;2022-12-07T09:24:26;2.50;99.90
35690;DHT22;26977;44.830;-0.674;2022-12-07T09:26:52;2.60;99.90
35690;DHT22;26977;44.830;-0.674;2022-12-07T09:29:18;2.80;99.90
35690;DHT22;26977;44.830;-0.674;2022-12-07T09:31:43;2.80;99.90
35690;DHT22;26977;44.830;-0.674;2022-12-07T09:34:09;2.80;99.90
35690;DHT22;26977;44.830;-0.674;2022-12-07T09:36:35;2.90;99.90
35690;DHT22;26977;44.830;-0.674;2022-12-07T09:39:00;3.10;99.90
35690;DHT22;26977;44.830;-0.674;2022-12-07T09:41:27;3.10;99.90
35690;DHT22;26977;44.830;-0.674;2022-12-07T09:44:09;3.10;99.90
35690;DHT22;26977;44.830;-0.674;2022-12-07T09:46:37;3.20;99.90
35690;DHT22;26977;44.830;-0.674;2022-12-07T09:49:04;3.30;99.90
35690;DHT22;26977;44.830;-0.674;2022-12-07T09:51:31;3.40;99.90
35690;DHT22;26977;44.830;-0.674;2022-12-07T09:53:58;3.50;99.90
35690;DHT22;26977;44.830;-0.674;2022-12-07T09:56:25;3.60;99.90
35690;DHT22;26977;44.830;-0.674;2022-12-07T09:58:57;3.50;99.90
35690;DHT22;26977;44.830;-0.674;2022-12-07T10:01:24;3.60;99.90
35690;DHT22;26977;44.830;-0.674;2022-12-07T10:03:58;3.80;99.90
35690;DHT22;26977;44.830;-0.674;2022-12-07T10:06:26;3.70;99.90
35690;DHT22;26977;44.830;-0.674;2022-12-07T10:08:51;3.70;99.90
35690;DHT22;26977;44.830;-0.674;2022-12-07T10:11:17;3.90;99.90
35690;DHT22;26977;44.830;-0.674;2022-12-07T10:13:47;4.00;99.90
35690;DHT22;26977;44.830;-0.674;2022-12-07T10:16:39;4.00;99.90
35690;DHT22;26977;44.830;-0.674;2022-12-07T10:22:03;4.30;99.90
35690;DHT22;26977;44.830;-0.674;2022-12-07T10:24:29;4.50;99.90
35690;DHT22;26977;44.830;-0.674;2022-12-07T10:26:56;4.60;99.90
35690;DHT22;26977;44.830;-0.674;2022-12-07T10:29:29;4.60;99.90
35690;DHT22;26977;44.830;-0.674;2022-12-07T10:32:02;4.60;99.90
35690;DHT22;26977;44.830;-0.674;2022-12-07T10:34:34;4.60;99.90
35690;DHT22;26977;44.830;-0.674;2022-12-07T10:39:55;4.80;99.90
35690;DHT22;26977;44.830;-0.674;2022-12-07T10:42:25;4.70;99.90
35690;DHT22;26977;44.830;-0.674;2022-12-07T10:45:14;4.70;99.90
35690;DHT22;26977;44.830;-0.674;2022-12-07T11:06:50;4.80;99.90
35690;DHT22;26977;44.830;-0.674;2022-12-07T11:09:44;4.90;99.90
35690;DHT22;26977;44.830;-0.674;2022-12-07T11:15:08;5.00;99.90
35690;DHT22;26977;44.830;-0.674;2022-12-07T11:18:04;4.90;99.90
35690;DHT22;26977;44.830;-0.674;2022-12-07T11:23:40;4.90;99.90
35690;DHT22;26977;44.830;-0.674;2022-12-07T11:33:17;5.00;99.90
35690;DHT22;26977;44.830;-0.674;2022-12-07T11:38:50;5.20;99.90
35690;DHT22;26977;44.830;-0.674;2022-12-07T11:41:26;5.30;99.90
35690;DHT22;26977;44.830;-0.674;2022-12-07T11:44:01;5.40;99.90
35690;DHT22;26977;44.830;-0.674;2022-12-07T11:46:57;5.50;99.90
35690;DHT22;26977;44.830;-0.674;2022-12-07T11:49:53;5.70;99.90
35690;DHT22;26977;44.830;-0.674;2022-12-07T11:52:30;5.90;99.90
35690;DHT22;26977;44.830;-0.674;2022-12-07T11:55:00;6.00;99.90
35690;DHT22;26977;44.830;-0.674;2022-12-07T11:57:42;6.00;99.90
35690;DHT22;26977;44.830;-0.674;2022-12-07T12:00:15;5.90;99.90
35690;DHT22;26977;44.830;-0.674;2022-12-07T12:03:08;5.90;99.90
35690;DHT22;26977;44.830;-0.674;2022-12-07T12:05:35;6.00;99.90
35690;DHT22;26977;44.830;-0.674;2022-12-07T12:11:04;6.10;99.90
35690;DHT22;26977;44.830;-0.674;2022-12-07T12:19:35;6.40;99.90
35690;DHT22;26977;44.830;-0.674;2022-12-07T12:24:41;6.60;99.90
35690;DHT22;26977;44.830;-0.674;2022-12-07T12:29:54;6.90;99.90
35690;DHT22;26977;44.830;-0.674;2022-12-07T12:32:40;6.90;99.90
35690;DHT22;26977;44.830;-0.674;2022-12-07T12:37:54;7.20;99.90
35690;DHT22;26977;44.830;-0.674;2022-12-07T12:45:24;7.40;99.90
35690;DHT22;26977;44.830;-0.674;2022-12-07T12:48:01;7.30;99.90
35690;DHT22;26977;44.830;-0.674;2022-12-07T12:50:35;7.20;99.90
35690;DHT22;26977;44.830;-0.674;2022-12-07T12:58:31;7.30;99.90
35690;DHT22;26977;44.830;-0.674;2022-12-07T13:04:00;7.30;99.90
35690;DHT22;26977;44.830;-0.674;2022-12-07T13:08:56;7.50;99.90
35690;DHT22;26977;44.830;-0.674;2022-12-07T13:11:33;7.60;99.90
35690;DHT22;26977;44.830;-0.674;2022-12-07T13:17:03;7.70;99.90
35690;DHT22;26977;44.830;-0.674;2022-12-07T13:27:36;7.90;99.90
35690;DHT22;26977;44.830;-0.674;2022-12-07T13:30:14;8.00;99.90
35690;DHT22;26977;44.830;-0.674;2022-12-07T13:32:40;8.10;99.90
35690;DHT22;26977;44.830;-0.674;2022-12-07T13:35:29;8.10;99.90
35690;DHT22;26977;44.830;-0.674;2022-12-07T13:37:55;8.10;99.90
35690;DHT22;26977;44.830;-0.674;2022-12-07T13:40:22;8.10;99.90
35690;DHT22;26977;44.830;-0.674;2022-12-07T13:42:48;8.20;99.90
35690;DHT22;26977;44.830;-0.674;2022-12-07T13:45:33;8.20;99.90
35690;DHT22;26977;44.830;-0.674;2022-12-07T13:48:31;8.10;99.90
35690;DHT22;26977;44.830;-0.674;2022-12-07T13:51:02;7.90;99.90
35690;DHT22;26977;44.830;-0.674;2022-12-07T13:53:28;7.90;99.90
35690;DHT22;26977;44.830;-0.674;2022-12-07T13:55:57;7.80;99.90
35690;DHT22;26977;44.830;-0.674;2022-12-07T13:58:24;7.70;99.90
35690;DHT22;26977;44.830;-0.674;2022-12-07T14:00:50;7.60;99.90
35690;DHT22;26977;44.830;-0.674;2022-12-07T14:05:44;7.50;99.90
35690;DHT22;26977;44.830;-0.674;2022-12-07T14:10:41;7.40;99.90
35690;DHT22;26977;44.830;-0.674;2022-12-07T14:15:51;7.30;99.90
35690;DHT22;26977;44.830;-0.674;2022-12-07T14:18:38;7.30;99.90
35690;DHT22;26977;44.830;-0.674;2022-12-07T14:21:24;7.20;99.90
35690;DHT22;26977;44.830;-0.674;2022-12-07T14:24:14;7.30;99.90
35690;DHT22;26977;44.830;-0.674;2022-12-07T14:26:40;7.20;99.90
35690;DHT22;26977;44.830;-0.674;2022-12-07T14:31:51;7.10;99.90
35690;DHT22;26977;44.830;-0.674;2022-12-07T14:34:20;7.10;99.90
35690;DHT22;26977;44.830;-0.674;2022-12-07T14:36:45;7.00;99.90
35690;DHT22;26977;44.830;-0.674;2022-12-07T14:39:11;7.00;99.90
35690;DHT22;26977;44.830;-0.674;2022-12-07T14:41:37;7.00;99.90
35690;DHT22;26977;44.830;-0.674;2022-12-07T14:44:22;6.90;99.90
35690;DHT22;26977;44.830;-0.674;2022-12-07T14:46:49;6.90;99.90
35690;DHT22;26977;44.830;-0.674;2022-12-07T14:49:15;6.80;99.90
35690;DHT22;26977;44.830;-0.674;2022-12-07T14:51:42;6.90;99.90
35690;DHT22;26977;44.830;-0.674;2022-12-07T14:54:19;6.90;99.90
35690;DHT22;26977;44.830;-0.674;2022-12-07T14:56:46;6.80;99.90
35690;DHT22;26977;44.830;-0.674;2022-12-07T14:59:16;6.80;99.90
35690;DHT22;26977;44.830;-0.674;2022-12-07T15:01:41;6.90;99.90
35690;DHT22;26977;44.830;-0.674;2022-12-07T15:04:07;6.90;99.90
35690;DHT22;26977;44.830;-0.674;2022-12-07T15:06:33;6.80;99.90
35690;DHT22;26977;44.830;-0.674;2022-12-07T15:08:58;6.80;99.90
35690;DHT22;26977;44.830;-0.674;2022-12-07T15:11:24;6.70;99.90
35690;DHT22;26977;44.830;-0.674;2022-12-07T15:13:50;6.70;99.90
35690;DHT22;26977;44.830;-0.674;2022-12-07T15:16:33;6.70;99.90
35690;DHT22;26977;44.830;-0.674;2022-12-07T15:18:59;6.60;99.90
35690;DHT22;26977;44.830;-0.674;2022-12-07T15:21:25;6.50;99.90
35690;DHT22;26977;44.830;-0.674;2022-12-07T15:23:50;6.50;99.90
35690;DHT22;26977;44.830;-0.674;2022-12-07T15:26:17;6.40;99.90
35690;DHT22;26977;44.830;-0.674;2022-12-07T15:28:42;6.30;99.90
35690;DHT22;26977;44.830;-0.674;2022-12-07T15:31:16;6.30;99.90
35690;DHT22;26977;44.830;-0.674;2022-12-07T15:33:43;6.20;99.90
35690;DHT22;26977;44.830;-0.674;2022-12-07T15:36:25;6.20;99.90
35690;DHT22;26977;44.830;-0.674;2022-12-07T15:38:51;6.20;99.90
35690;DHT22;26977;44.830;-0.674;2022-12-07T15:41:17;6.10;99.90
35690;DHT22;26977;44.830;-0.674;2022-12-07T15:43:43;6.10;99.90
35690;DHT22;26977;44.830;-0.674;2022-12-07T15:46:41;6.00;99.90
35690;DHT22;26977;44.830;-0.674;2022-12-07T15:49:13;6.00;99.90
35690;DHT22;26977;44.830;-0.674;2022-12-07T15:51:41;6.00;99.90
35690;DHT22;26977;44.830;-0.674;2022-12-07T15:54:10;6.00;99.90
35690;DHT22;26977;44.830;-0.674;2022-12-07T15:56:37;6.00;99.90
35690;DHT22;26977;44.830;-0.674;2022-12-07T15:59:03;6.10;99.90
35690;DHT22;26977;44.830;-0.674;2022-12-07T16:01:28;6.20;99.90
35690;DHT22;26977;44.830;-0.674;2022-12-07T16:03:54;6.30;99.90
35690;DHT22;26977;44.830;-0.674;2022-12-07T16:06:22;6.30;99.90
35690;DHT22;26977;44.830;-0.674;2022-12-07T16:08:47;6.40;99.90
35690;DHT22;26977;44.830;-0.674;2022-12-07T16:11:13;6.40;99.90
35690;DHT22;26977;44.830;-0.674;2022-12-07T16:13:39;6.40;99.90
35690;DHT22;26977;44.830;-0.674;2022-12-07T16:16:08;6.30;99.90
35690;DHT22;26977;44.830;-0.674;2022-12-07T16:18:35;6.30;99.90
35690;DHT22;26977;44.830;-0.674;2022-12-07T16:21:01;6.30;99.90
35690;DHT22;26977;44.830;-0.674;2022-12-07T16:23:27;6.30;99.90
35690;DHT22;26977;44.830;-0.674;2022-12-07T16:25:53;6.20;99.90
35690;DHT22;26977;44.830;-0.674;2022-12-07T16:28:19;6.10;99.90
35690;DHT22;26977;44.830;-0.674;2022-12-07T16:30:45;6.00;99.90
35690;DHT22;26977;44.830;-0.674;2022-12-07T16:33:11;5.90;99.90
35690;DHT22;26977;44.830;-0.674;2022-12-07T16:35:40;5.90;99.90
35690;DHT22;26977;44.830;-0.674;2022-12-07T16:38:09;5.70;99.90
35690;DHT22;26977;44.830;-0.674;2022-12-07T16:40:35;5.70;99.90
35690;DHT22;26977;44.830;-0.674;2022-12-07T16:43:00;5.50;99.90
35690;DHT22;26977;44.830;-0.674;2022-12-07T16:45:26;5.50;99.90
35690;DHT22;26977;44.830;-0.674;2022-12-07T16:47:51;5.40;99.90
35690;DHT22;26977;44.830;-0.674;2022-12-07T16:50:17;5.40;99.90
35690;DHT22;26977;44.830;-0.674;2022-12-07T16:52:43;5.20;99.90
35690;DHT22;26977;44.830;-0.674;2022-12-07T16:55:09;5.10;99.90
35690;DHT22;26977;44.830;-0.674;2022-12-07T16:57:34;5.10;99.90
35690;DHT22;26977;44.830;-0.674;2022-12-07T17:00:00;5.00;99.90
35690;DHT22;26977;44.830;-0.674;2022-12-07T17:02:26;5.00;99.90
35690;DHT22;26977;44.830;-0.674;2022-12-07T17:04:51;5.00;99.90
35690;DHT22;26977;44.830;-0.674;2022-12-07T17:07:17;4.90;99.90
35690;DHT22;26977;44.830;-0.674;2022-12-07T17:09:42;4.90;99.90
35690;DHT22;26977;44.830;-0.674;2022-12-07T17:12:08;4.90;99.90
35690;DHT22;26977;44.830;-0.674;2022-12-07T17:14:34;4.90;99.90
35690;DHT22;26977;44.830;-0.674;2022-12-07T17:17:18;4.90;99.90
35690;DHT22;26977;44.830;-0.674;2022-12-07T17:19:45;4.90;99.90
35690;DHT22;26977;44.830;-0.674;2022-12-07T17:22:10;4.80;99.90
35690;DHT22;26977;44.830;-0.674;2022-12-07T17:24:38;4.90;99.90
35690;DHT22;26977;44.830;-0.674;2022-12-07T17:27:03;5.00;99.90
35690;DHT22;26977;44.830;-0.674;2022-12-07T17:29:29;5.20;99.90
35690;DHT22;26977;44.830;-0.674;2022-12-07T17:31:55;5.20;99.90
35690;DHT22;26977;44.830;-0.674;2022-12-07T17:34:20;5.30;99.90
35690;DHT22;26977;44.830;-0.674;2022-12-07T17:36:46;5.30;99.90
35690;DHT22;26977;44.830;-0.674;2022-12-07T17:39:15;5.40;99.90